Time;durP1;ratioP1;P1;durP2;ratioP2;P2;SDS_P1;SDS_P2;PMS_P1;PMS_P2;Temp;Humidity;BMP_temperature;BMP_pressure;BME280_temperature;BME280_humidity;BME280_pressure;Samples;Min_cycle;Max_cycle;Signal;HPM_P1;HPM_P2
2022/07/27 00:00:52;;;;;;;5.60;1.13;;;15.60;99.90;;;;;;4914851;29;20056;-77
2022/07/27 00:03:38;;;;;;;7.57;1.08;;;15.70;99.90;;;;;;4915217;29;20056;-78
2022/07/27 00:06:24;;;;;;;6.07;1.08;;;15.70;99.90;;;;;;4917276;29;20052;-80
2022/07/27 00:09:11;;;;;;;9.27;1.20;;;15.70;99.90;;;;;;4901890;29;20654;-79
2022/07/27 00:11:57;;;;;;;7.85;1.88;;;15.70;99.90;;;;;;4919401;29;20139;-81
2022/07/27 00:14:43;;;;;;;6.55;1.20;;;15.70;99.90;;;;;;4919198;29;20056;-78
2022/07/27 00:17:30;;;;;;;6.50;1.10;;;15.70;99.90;;;;;;4921728;29;20052;-80
2022/07/27 00:20:16;;;;;;;12.13;1.67;;;15.80;99.90;;;;;;4917004;29;20052;-81
2022/07/27 00:23:02;;;;;;;10.50;2.08;;;15.80;99.90;;;;;;4924183;29;20052;-80
2022/07/27 00:25:49;;;;;;;10.55;1.48;;;15.80;99.90;;;;;;4920383;29;20048;-76
2022/07/27 00:28:35;;;;;;;9.10;3.17;;;15.80;99.90;;;;;;4918046;29;20531;-80
2022/07/27 00:31:21;;;;;;;7.35;1.08;;;15.80;99.90;;;;;;4918407;29;20135;-80
2022/07/27 00:34:08;;;;;;;6.93;1.05;;;15.70;99.90;;;;;;4918535;29;20055;-78
2022/07/27 00:36:54;;;;;;;5.18;0.95;;;15.80;99.90;;;;;;4918095;29;20489;-77
2022/07/27 00:39:42;;;;;;;4.50;0.88;;;15.70;99.90;;;;;;4918318;29;20052;-77
2022/07/27 00:42:28;;;;;;;7.47;1.17;;;15.70;99.90;;;;;;4917925;29;20481;-78
2022/07/27 00:45:15;;;;;;;4.05;0.77;;;15.70;99.90;;;;;;4918031;29;20059;-78
2022/07/27 00:48:01;;;;;;;7.15;1.02;;;15.70;99.90;;;;;;4918843;29;20068;-77
2022/07/27 00:50:48;;;;;;;6.47;1.00;;;15.70;99.90;;;;;;4918788;29;20051;-79
2022/07/27 00:53:35;;;;;;;4.15;0.93;;;15.70;99.90;;;;;;4905927;29;20048;-77
2022/07/27 00:56:22;;;;;;;10.43;2.70;;;15.60;99.90;;;;;;4918599;29;20512;-76
2022/07/27 00:59:10;;;;;;;8.70;1.30;;;15.60;99.90;;;;;;4919084;29;20531;-80
2022/07/27 01:01:57;;;;;;;11.30;1.48;;;15.60;99.90;;;;;;4902877;29;20646;-81
2022/07/27 01:04:43;;;;;;;8.57;1.13;;;15.60;99.90;;;;;;4918000;29;20138;-80
2022/07/27 01:07:31;;;;;;;10.23;1.52;;;15.70;99.90;;;;;;4921218;29;20059;-77
2022/07/27 01:10:17;;;;;;;9.32;1.35;;;15.70;99.90;;;;;;4920762;29;20052;-82
2022/07/27 01:13:04;;;;;;;7.47;1.23;;;15.70;99.90;;;;;;4917860;29;20052;-78
2022/07/27 01:15:51;;;;;;;13.70;1.30;;;15.70;99.90;;;;;;4917181;29;20048;-80
2022/07/27 01:18:38;;;;;;;7.03;1.20;;;15.70;99.90;;;;;;4916986;29;20404;-79
2022/07/27 01:21:25;;;;;;;7.20;1.25;;;15.70;99.90;;;;;;4900747;29;20048;-79
2022/07/27 01:24:11;;;;;;;10.82;1.70;;;15.70;99.90;;;;;;4917470;29;20060;-77
2022/07/27 01:27:02;;;;;;;4.07;1.17;;;15.70;99.90;;;;;;4918042;29;20048;-77
2022/07/27 01:29:49;;;;;;;6.22;1.55;;;15.70;99.90;;;;;;4899909;29;20079;-78
2022/07/27 01:32:35;;;;;;;11.10;1.73;;;15.70;99.90;;;;;;4916750;29;20052;-79
2022/07/27 01:35:21;;;;;;;8.10;1.33;;;15.70;99.90;;;;;;4916921;29;20059;-77
2022/07/27 01:38:10;;;;;;;8.57;1.30;;;15.80;99.90;;;;;;4918323;29;20048;-77
2022/07/27 01:40:56;;;;;;;8.00;1.65;;;15.80;99.90;;;;;;4919221;29;20128;-78
2022/07/27 01:43:43;;;;;;;9.65;1.23;;;15.80;99.90;;;;;;4915797;29;20048;-78
2022/07/27 01:46:30;;;;;;;6.00;0.93;;;15.80;99.90;;;;;;4917152;29;20154;-79
2022/07/27 01:49:16;;;;;;;8.75;1.10;;;15.80;99.90;;;;;;4916194;29;20087;-78
2022/07/27 01:52:03;;;;;;;8.75;1.33;;;15.80;99.90;;;;;;4916269;29;20502;-80
2022/07/27 01:54:49;;;;;;;9.48;1.50;;;15.80;99.90;;;;;;4916518;29;20052;-79
2022/07/27 01:57:37;;;;;;;6.03;1.27;;;15.80;99.90;;;;;;4915743;29;20139;-78
2022/07/27 02:00:23;;;;;;;7.03;1.42;;;15.80;99.90;;;;;;4914957;29;20048;-80
2022/07/27 02:03:11;;;;;;;9.43;1.70;;;15.80;99.90;;;;;;4915869;29;20067;-79
2022/07/27 02:05:57;;;;;;;7.32;1.40;;;15.80;99.90;;;;;;4916260;29;20507;-78
2022/07/27 02:08:44;;;;;;;6.68;1.15;;;15.80;99.90;;;;;;4916637;29;20060;-78
2022/07/27 02:14:37;;;;;;;7.68;1.10;;;15.80;99.90;;;;;;4916483;29;20063;-80
2022/07/27 02:17:24;;;;;;;8.80;1.67;;;15.70;99.90;;;;;;4916308;29;20052;-81
2022/07/27 02:20:12;;;;;;;7.32;1.05;;;15.70;99.90;;;;;;4918471;29;20056;-78
2022/07/27 02:22:58;;;;;;;6.80;1.40;;;15.70;99.90;;;;;;4917909;29;20052;-78
2022/07/27 02:25:44;;;;;;;7.15;1.10;;;15.70;99.90;;;;;;4916021;29;20055;-77
2022/07/27 02:28:31;;;;;;;6.25;1.00;;;15.70;99.90;;;;;;4914378;29;20060;-78
2022/07/27 02:31:17;;;;;;;5.88;1.65;;;15.70;99.90;;;;;;4914973;29;20048;-80
2022/07/27 02:34:04;;;;;;;6.45;0.90;;;15.70;99.90;;;;;;4915515;29;20055;-77
2022/07/27 02:36:50;;;;;;;5.38;0.95;;;15.60;99.90;;;;;;4915942;29;20068;-77
2022/07/27 02:39:37;;;;;;;5.90;0.90;;;15.60;99.90;;;;;;4915978;29;20063;-80
2022/07/27 02:42:23;;;;;;;4.63;0.93;;;15.60;99.90;;;;;;4915339;29;20176;-78
2022/07/27 02:45:10;;;;;;;5.85;1.00;;;15.50;99.90;;;;;;4915320;29;20083;-80
2022/07/27 02:47:56;;;;;;;6.40;1.27;;;15.50;99.90;;;;;;4914577;29;20078;-78
2022/07/27 02:50:43;;;;;;;9.02;1.42;;;15.50;99.90;;;;;;4914945;29;20547;-78
2022/07/27 02:53:29;;;;;;;8.18;1.90;;;15.50;99.90;;;;;;4915261;29;20059;-77
2022/07/27 02:56:15;;;;;;;5.43;0.93;;;15.50;99.90;;;;;;4914307;29;20068;-80
2022/07/27 02:59:02;;;;;;;9.23;1.55;;;15.50;99.90;;;;;;4915925;29;20060;-77
2022/07/27 03:01:48;;;;;;;8.45;2.17;;;15.50;99.90;;;;;;4916022;29;20048;-76
2022/07/27 03:04:35;;;;;;;19.88;1.95;;;15.50;99.90;;;;;;4915425;29;20055;-79
2022/07/27 03:07:21;;;;;;;4.68;0.93;;;15.50;99.90;;;;;;4914770;29;20464;-78
2022/07/27 03:10:08;;;;;;;7.13;1.00;;;15.50;99.90;;;;;;4915339;29;20512;-78
2022/07/27 03:12:54;;;;;;;3.47;0.85;;;15.50;99.90;;;;;;4916313;29;20087;-79
2022/07/27 03:15:40;;;;;;;9.40;1.00;;;15.40;99.90;;;;;;4915548;29;20143;-79
2022/07/27 03:18:27;;;;;;;7.53;1.10;;;15.40;99.90;;;;;;4916943;29;20040;-77
2022/07/27 03:21:14;;;;;;;10.45;1.13;;;15.40;99.90;;;;;;4917224;29;20048;-77
2022/07/27 03:24:01;;;;;;;8.45;1.23;;;15.40;99.90;;;;;;4917082;29;20071;-77
2022/07/27 03:26:47;;;;;;;10.50;1.50;;;15.40;99.90;;;;;;4916986;29;20056;-79
2022/07/27 03:29:37;;;;;;;10.77;1.50;;;15.40;99.90;;;;;;4915543;29;20047;-78
2022/07/27 03:32:23;;;;;;;10.90;1.77;;;15.40;99.90;;;;;;4916726;29;20081;-79
2022/07/27 03:35:12;;;;;;;6.40;1.50;;;15.40;99.90;;;;;;4916592;29;20052;-79
2022/07/27 03:37:58;;;;;;;10.80;1.35;;;15.30;99.90;;;;;;4914147;29;20052;-80
2022/07/27 03:40:45;;;;;;;8.38;2.05;;;15.30;99.90;;;;;;4914529;29;20080;-79
2022/07/27 03:43:32;;;;;;;11.85;2.25;;;15.30;99.90;;;;;;4914760;29;20092;-77
2022/07/27 03:46:18;;;;;;;8.20;2.42;;;15.30;99.90;;;;;;4914947;28;20076;-79
2022/07/27 03:49:05;;;;;;;8.77;1.83;;;15.40;99.90;;;;;;4913831;29;20135;-78
2022/07/27 03:51:51;;;;;;;10.98;1.70;;;15.40;99.90;;;;;;4898078;29;20064;-77
2022/07/27 03:54:40;;;;;;;12.00;2.30;;;15.40;99.90;;;;;;4914428;29;20048;-78
2022/07/27 03:57:26;;;;;;;6.05;1.67;;;15.30;99.90;;;;;;4915558;29;20135;-77
2022/07/27 04:00:14;;;;;;;8.52;1.25;;;15.20;99.90;;;;;;4914892;29;20168;-77
2022/07/27 04:03:00;;;;;;;11.48;2.20;;;15.10;99.90;;;;;;4915197;28;20171;-81
2022/07/27 04:05:46;;;;;;;8.75;1.30;;;15.00;99.90;;;;;;4915886;29;20143;-77
2022/07/27 04:08:33;;;;;;;8.93;1.48;;;15.00;99.90;;;;;;4918168;29;20051;-76
2022/07/27 04:11:19;;;;;;;10.20;1.23;;;15.00;99.90;;;;;;4915544;29;20067;-76
2022/07/27 04:14:05;;;;;;;8.45;1.50;;;14.90;99.90;;;;;;4913659;29;20067;-79
2022/07/27 04:16:52;;;;;;;12.32;2.05;;;14.90;99.90;;;;;;4914458;29;20084;-76
2022/07/27 04:19:38;;;;;;;9.10;1.52;;;14.90;99.90;;;;;;4914595;29;20053;-78
2022/07/27 04:22:24;;;;;;;15.20;2.58;;;14.90;99.90;;;;;;4914400;29;20197;-77
2022/07/27 04:25:10;;;;;;;9.30;1.70;;;14.90;99.90;;;;;;4913642;29;20082;-80
2022/07/27 04:27:56;;;;;;;7.90;1.23;;;14.90;99.90;;;;;;4914897;29;20045;-77
2022/07/27 04:30:43;;;;;;;7.75;1.55;;;14.90;99.90;;;;;;4916592;29;20060;-75
2022/07/27 04:33:30;;;;;;;11.18;1.58;;;14.90;99.90;;;;;;4917205;29;20412;-79
2022/07/27 04:36:17;;;;;;;5.85;1.35;;;14.90;99.90;;;;;;4913137;29;20040;-79
2022/07/27 04:39:06;;;;;;;9.50;1.75;;;15.00;99.90;;;;;;4915021;29;20051;-78
2022/07/27 04:41:53;;;;;;;13.25;2.15;;;15.00;99.90;;;;;;4913533;29;20405;-79
2022/07/27 04:44:39;;;;;;;6.90;1.20;;;15.10;99.90;;;;;;4914102;29;20048;-78
2022/07/27 04:47:25;;;;;;;8.13;1.15;;;15.10;99.90;;;;;;4913996;29;20060;-77
2022/07/27 04:50:11;;;;;;;6.40;1.17;;;15.10;99.90;;;;;;4918393;29;20508;-76
2022/07/27 04:52:58;;;;;;;6.70;1.52;;;15.20;99.90;;;;;;4905057;29;20080;-79
2022/07/27 04:55:45;;;;;;;5.57;1.15;;;15.20;99.90;;;;;;4904678;29;20119;-79
2022/07/27 04:58:31;;;;;;;7.18;0.90;;;15.20;99.90;;;;;;4917806;29;20044;-76
2022/07/27 05:01:18;;;;;;;5.60;1.15;;;15.30;99.90;;;;;;4917842;29;20052;-77
2022/07/27 05:04:04;;;;;;;5.75;1.65;;;15.30;99.90;;;;;;4916631;29;20045;-77
2022/07/27 05:06:51;;;;;;;4.18;1.00;;;15.40;99.90;;;;;;4917193;29;20056;-77
2022/07/27 05:09:37;;;;;;;5.75;1.35;;;15.40;99.90;;;;;;4917583;29;20051;-78
2022/07/27 05:12:23;;;;;;;6.18;1.25;;;15.40;99.90;;;;;;4917872;29;20044;-80
2022/07/27 05:15:10;;;;;;;7.70;1.00;;;15.60;99.90;;;;;;4920404;29;20048;-79
2022/07/27 05:17:58;;;;;;;5.80;1.20;;;15.60;99.90;;;;;;4919551;29;20040;-79
2022/07/27 05:20:45;;;;;;;9.70;1.85;;;15.70;99.90;;;;;;4917853;29;20040;-81
2022/07/27 05:23:31;;;;;;;5.50;1.02;;;15.80;99.90;;;;;;4917972;28;20514;-78
2022/07/27 05:26:21;;;;;;;6.28;1.17;;;15.90;99.90;;;;;;4917197;29;20052;-80
2022/07/27 05:29:07;;;;;;;5.82;1.08;;;16.00;99.90;;;;;;4916848;29;20048;-77
2022/07/27 05:31:53;;;;;;;6.40;0.90;;;16.00;99.90;;;;;;4918810;29;20052;-82
2022/07/27 05:34:40;;;;;;;18.35;2.42;;;16.10;99.90;;;;;;4905080;29;20080;-80
2022/07/27 05:37:30;;;;;;;5.15;1.02;;;16.20;99.90;;;;;;4919051;29;20044;-82
2022/07/27 05:40:16;;;;;;;8.15;1.25;;;16.40;99.90;;;;;;4920831;29;20119;-79
2022/07/27 05:43:03;;;;;;;5.75;1.38;;;16.50;99.90;;;;;;4918884;29;20063;-77
2022/07/27 05:45:49;;;;;;;9.05;1.27;;;16.70;99.90;;;;;;4917386;29;20048;-78
2022/07/27 05:48:35;;;;;;;4.75;1.00;;;16.90;99.90;;;;;;4900846;29;20056;-82
2022/07/27 05:51:22;;;;;;;8.50;2.40;;;17.00;99.90;;;;;;4916606;29;20052;-78
2022/07/27 05:54:08;;;;;;;6.13;1.20;;;16.90;99.90;;;;;;4917904;29;20048;-80
2022/07/27 05:56:54;;;;;;;11.55;1.17;;;16.90;99.90;;;;;;4918446;29;20052;-81
2022/07/27 05:59:41;;;;;;;9.00;1.63;;;16.90;99.90;;;;;;4917186;29;20064;-82
2022/07/27 06:02:30;;;;;;;5.40;1.17;;;17.00;99.90;;;;;;4915420;29;20434;-76
2022/07/27 06:05:16;;;;;;;5.82;1.08;;;17.00;99.90;;;;;;4918026;28;20105;-79
2022/07/27 06:08:07;;;;;;;7.97;1.20;;;17.00;99.90;;;;;;4917196;29;20048;-81
2022/07/27 06:10:53;;;;;;;11.80;1.40;;;17.10;99.90;;;;;;4918392;29;20074;-79
2022/07/27 06:13:40;;;;;;;6.78;0.90;;;17.20;99.90;;;;;;4918486;29;20060;-78
2022/07/27 06:16:26;;;;;;;5.07;0.93;;;17.40;99.90;;;;;;4919903;29;20067;-79
2022/07/27 06:19:12;;;;;;;8.50;1.33;;;17.40;99.90;;;;;;4917420;29;20472;-80
2022/07/27 06:21:59;;;;;;;7.13;1.10;;;17.60;99.90;;;;;;4903854;29;20155;-81
2022/07/27 06:24:45;;;;;;;5.45;0.93;;;17.80;99.90;;;;;;4916018;29;20416;-79
2022/07/27 06:27:34;;;;;;;6.15;1.00;;;17.90;99.90;;;;;;4915769;29;20177;-78
2022/07/27 06:30:21;;;;;;;7.13;1.10;;;17.90;99.90;;;;;;4915741;29;20099;-81
2022/07/27 06:33:08;;;;;;;5.50;1.08;;;17.90;99.90;;;;;;4917104;29;20546;-80
2022/07/27 06:35:56;;;;;;;8.68;1.17;;;17.80;99.90;;;;;;4916986;29;20492;-80
2022/07/27 06:38:42;;;;;;;10.25;1.52;;;17.70;99.90;;;;;;4915767;29;20048;-79
2022/07/27 06:41:29;;;;;;;7.05;1.50;;;17.60;99.90;;;;;;4916083;29;20075;-80
2022/07/27 06:44:15;;;;;;;10.70;1.92;;;17.20;99.90;;;;;;4904768;29;20048;-77
2022/07/27 06:47:01;;;;;;;7.13;1.27;;;16.80;99.90;;;;;;4902406;29;20060;-80
2022/07/27 06:49:48;;;;;;;11.77;1.70;;;16.40;99.90;;;;;;4915674;29;20535;-77
2022/07/27 06:52:34;;;;;;;12.57;1.85;;;16.20;99.90;;;;;;4914437;29;20108;-76
2022/07/27 06:55:20;;;;;;;8.68;1.42;;;15.90;99.90;;;;;;4915853;29;20044;-77
2022/07/27 06:58:11;;;;;;;9.95;1.55;;;15.70;99.90;;;;;;4914622;29;20135;-77
2022/07/27 07:01:00;;;;;;;7.47;1.70;;;15.50;99.90;;;;;;4915010;29;20084;-78
2022/07/27 07:03:47;;;;;;;6.93;1.77;;;15.50;99.90;;;;;;4914607;29;20052;-79
2022/07/27 07:06:33;;;;;;;5.32;1.20;;;15.40;99.90;;;;;;4915137;29;20044;-78
2022/07/27 07:09:20;;;;;;;5.90;1.38;;;15.30;99.90;;;;;;4914979;29;20056;-79
2022/07/27 07:12:07;;;;;;;6.60;1.27;;;15.20;99.90;;;;;;4914458;29;20048;-81
2022/07/27 07:14:53;;;;;;;4.40;1.55;;;15.20;99.90;;;;;;4915388;29;20048;-81
2022/07/27 07:17:40;;;;;;;7.13;1.20;;;15.30;99.90;;;;;;4915441;29;20067;-80
2022/07/27 07:20:26;;;;;;;3.50;1.02;;;15.40;99.90;;;;;;4915628;29;20465;-80
2022/07/27 07:23:12;;;;;;;2.85;1.05;;;15.70;99.90;;;;;;4915160;29;20043;-81
2022/07/27 07:25:59;;;;;;;5.88;1.20;;;15.80;99.90;;;;;;4914550;29;20074;-79
2022/07/27 07:28:45;;;;;;;10.55;1.75;;;16.00;99.90;;;;;;4915574;29;20052;-78
2022/07/27 07:31:31;;;;;;;5.57;1.20;;;16.20;99.90;;;;;;4914490;29;20140;-78
2022/07/27 07:34:18;;;;;;;8.30;1.23;;;16.50;99.90;;;;;;4915726;29;20044;-80
2022/07/27 07:37:07;;;;;;;9.43;1.50;;;16.60;99.90;;;;;;4918274;29;20052;-80
2022/07/27 07:39:56;;;;;;;7.28;1.00;;;16.80;99.90;;;;;;4920346;29;20106;-80
2022/07/27 07:42:51;;;;;;;10.52;1.67;;;16.90;99.90;;;;;;4905879;29;20088;-79
2022/07/27 07:45:38;;;;;;;12.35;2.97;;;17.10;99.90;;;;;;4919292;29;20044;-79
2022/07/27 07:48:27;;;;;;;5.53;1.58;;;17.30;99.90;;;;;;4916526;29;20059;-80
2022/07/27 07:51:14;;;;;;;10.63;1.38;;;17.40;99.90;;;;;;4915451;29;20113;-79
2022/07/27 07:54:00;;;;;;;8.25;1.98;;;17.70;99.90;;;;;;4900358;28;20119;-78
2022/07/27 07:56:46;;;;;;;4.45;1.15;;;17.90;99.90;;;;;;4914393;29;20048;-78
2022/07/27 07:59:35;;;;;;;4.45;0.95;;;17.70;99.90;;;;;;4914014;29;20159;-78
2022/07/27 08:02:22;;;;;;;8.40;1.63;;;17.60;99.90;;;;;;4914654;29;20140;-78
2022/07/27 08:05:09;;;;;;;7.53;1.63;;;17.60;99.90;;;;;;4913828;29;20048;-78
2022/07/27 08:07:55;;;;;;;7.28;1.98;;;17.60;99.90;;;;;;4915078;29;20058;-78
2022/07/27 08:10:41;;;;;;;6.95;1.13;;;17.70;99.90;;;;;;4904167;29;20048;-81
2022/07/27 08:13:28;;;;;;;4.25;0.95;;;17.70;99.90;;;;;;4916946;29;20047;-78
2022/07/27 08:16:17;;;;;;;7.32;1.40;;;17.70;99.90;;;;;;4918320;29;20050;-79
2022/07/27 08:19:03;;;;;;;4.90;1.10;;;17.90;99.90;;;;;;4920797;29;20072;-82
2022/07/27 08:21:57;;;;;;;5.72;1.00;;;18.00;99.90;;;;;;4919239;29;20060;-81
2022/07/27 08:24:43;;;;;;;4.97;1.08;;;18.20;99.90;;;;;;4918227;29;20052;-77
2022/07/27 08:27:30;;;;;;;4.00;0.85;;;18.40;99.90;;;;;;4919981;29;20556;-78
2022/07/27 08:30:16;;;;;;;3.85;0.93;;;18.50;99.90;;;;;;4919818;29;20062;-78
2022/07/27 08:33:04;;;;;;;6.25;0.90;;;18.50;99.70;;;;;;4921013;29;20062;-77
2022/07/27 08:35:52;;;;;;;3.80;0.82;;;18.60;99.50;;;;;;4922240;29;20044;-81
2022/07/27 08:38:39;;;;;;;5.55;1.35;;;18.70;99.70;;;;;;4923996;29;20122;-82
2022/07/27 08:41:27;;;;;;;7.97;1.20;;;18.70;99.40;;;;;;4918562;29;20048;-82
2022/07/27 08:44:14;;;;;;;8.15;0.90;;;18.90;99.20;;;;;;4918330;29;20059;-79
2022/07/27 08:47:01;;;;;;;5.47;1.33;;;19.30;99.30;;;;;;4916927;28;20497;-77
2022/07/27 08:49:48;;;;;;;4.97;0.88;;;19.50;98.70;;;;;;4917512;29;20052;-82
2022/07/27 08:52:34;;;;;;;5.75;1.00;;;19.80;98.00;;;;;;4920567;29;20408;-81
2022/07/27 08:55:21;;;;;;;4.22;1.02;;;19.80;97.20;;;;;;4921451;29;20056;-79
2022/07/27 08:58:09;;;;;;;6.03;0.80;;;19.90;97.20;;;;;;4916490;29;20056;-78
2022/07/27 09:00:56;;;;;;;4.80;0.82;;;20.00;97.20;;;;;;4917397;29;20048;-81
2022/07/27 09:03:43;;;;;;;6.47;1.45;;;20.20;96.30;;;;;;4918698;29;20429;-82
2022/07/27 09:06:46;;;;;;;5.97;1.05;;;20.40;96.40;;;;;;4915505;29;20115;-81
2022/07/27 09:09:45;;;;;;;8.02;1.00;;;20.70;96.00;;;;;;4916838;29;20063;-78
2022/07/27 09:12:33;;;;;;;6.15;0.90;;;20.90;95.80;;;;;;4916734;29;20059;-79
2022/07/27 09:15:19;;;;;;;3.22;0.82;;;21.20;95.90;;;;;;4919280;29;20106;-77
2022/07/27 09:18:21;;;;;;;5.90;0.95;;;21.40;94.90;;;;;;4917915;29;20079;-81
2022/07/27 09:21:23;;;;;;;5.70;1.42;;;21.40;93.90;;;;;;4902000;29;20071;-79
2022/07/27 09:24:12;;;;;;;3.15;0.88;;;21.60;94.40;;;;;;4916521;29;20048;-81
2022/07/27 09:27:04;;;;;;;6.45;0.98;;;21.70;94.20;;;;;;4917300;29;20615;-78
2022/07/27 09:30:03;;;;;;;5.72;0.90;;;21.80;93.70;;;;;;4918248;29;20146;-81
2022/07/27 09:33:00;;;;;;;4.00;0.98;;;21.90;92.70;;;;;;4919175;29;20056;-79
2022/07/27 09:35:58;;;;;;;4.57;0.80;;;22.20;92.90;;;;;;4916700;29;20563;-80
2022/07/27 09:38:55;;;;;;;5.90;1.15;;;22.20;91.90;;;;;;4916024;29;20059;-78
2022/07/27 09:41:55;;;;;;;3.65;0.90;;;22.30;91.30;;;;;;4916938;29;20056;-78
2022/07/27 09:44:44;;;;;;;3.53;0.68;;;22.40;91.80;;;;;;4917628;29;20060;-77
2022/07/27 09:47:31;;;;;;;7.15;0.70;;;22.40;91.90;;;;;;4917121;29;20064;-79
2022/07/27 09:50:26;;;;;;;4.35;0.85;;;22.10;91.80;;;;;;4916096;29;20052;-80
2022/07/27 09:53:21;;;;;;;4.15;0.73;;;22.30;91.70;;;;;;4900477;29;20060;-81
2022/07/27 09:56:12;;;;;;;6.03;1.38;;;22.50;91.20;;;;;;4918874;28;20048;-79
2022/07/27 09:59:00;;;;;;;5.65;0.95;;;22.70;91.80;;;;;;4902502;29;20131;-82
2022/07/27 10:01:46;;;;;;;8.88;1.08;;;22.90;92.20;;;;;;4916625;29;20055;-80
2022/07/27 10:04:33;;;;;;;4.18;0.98;;;22.90;91.70;;;;;;4922142;29;20509;-79
2022/07/27 10:07:19;;;;;;;6.90;0.90;;;23.10;92.10;;;;;;4919337;29;20044;-80
2022/07/27 10:10:06;;;;;;;6.65;1.10;;;23.50;91.50;;;;;;4917082;29;20453;-81
2022/07/27 10:12:53;;;;;;;3.50;1.00;;;23.50;91.30;;;;;;4916514;29;20119;-82
2022/07/27 10:15:40;;;;;;;4.40;0.85;;;23.70;90.70;;;;;;4915228;29;20056;-77
2022/07/27 10:18:35;;;;;;;4.40;0.50;;;23.80;90.90;;;;;;4915518;29;20119;-79
2022/07/27 10:21:23;;;;;;;5.45;0.85;;;24.00;90.60;;;;;;4916141;29;20048;-81
2022/07/27 10:24:21;;;;;;;3.92;0.80;;;24.00;89.00;;;;;;4918218;29;20408;-77
2022/07/27 10:27:27;;;;;;;7.00;0.90;;;23.50;88.40;;;;;;4921297;29;20044;-79
2022/07/27 10:30:17;;;;;;;5.75;0.75;;;23.20;88.50;;;;;;4919766;29;20055;-80
2022/07/27 10:33:43;;;;;;;2.72;0.68;;;23.10;90.30;;;;;;4918523;29;20099;-79
2022/07/27 10:36:30;;;;;;;2.28;0.68;;;23.30;90.00;;;;;;4900988;29;20048;-79
2022/07/27 10:39:33;;;;;;;4.75;0.57;;;23.70;90.70;;;;;;4915983;29;20135;-79
2022/07/27 10:42:23;;;;;;;3.72;0.80;;;23.60;89.40;;;;;;4915108;29;20048;-79
2022/07/27 10:45:15;;;;;;;3.97;0.70;;;23.40;90.00;;;;;;4915899;29;20048;-79
2022/07/27 10:48:01;;;;;;;3.42;0.50;;;22.90;89.00;;;;;;4915284;29;20118;-79
2022/07/27 10:50:50;;;;;;;4.88;0.60;;;22.50;88.90;;;;;;4916148;28;20052;-81
2022/07/27 10:53:39;;;;;;;2.38;0.93;;;22.90;89.40;;;;;;4916241;29;20048;-79
2022/07/27 10:56:45;;;;;;;2.67;0.63;;;23.50;88.30;;;;;;4915884;29;20080;-80
2022/07/27 10:59:45;;;;;;;6.30;0.82;;;23.70;84.80;;;;;;4916358;29;20059;-79
2022/07/27 11:02:38;;;;;;;3.70;0.93;;;24.00;86.60;;;;;;4916375;29;20292;-81
2022/07/27 11:05:28;;;;;;;4.53;0.80;;;24.00;86.10;;;;;;4917418;29;20055;-79
2022/07/27 11:08:14;;;;;;;5.80;0.93;;;23.90;85.00;;;;;;4915877;29;20500;-80
2022/07/27 11:11:02;;;;;;;5.15;0.80;;;23.80;85.30;;;;;;4916409;29;20048;-79
2022/07/27 11:13:52;;;;;;;7.05;0.82;;;24.30;87.30;;;;;;4915496;29;20048;-79
2022/07/27 11:16:40;;;;;;;5.13;0.80;;;24.50;85.60;;;;;;4915116;29;20062;-80
2022/07/27 11:19:26;;;;;;;4.40;0.98;;;24.90;85.60;;;;;;4915964;29;20138;-80
2022/07/27 11:22:12;;;;;;;2.58;0.75;;;24.80;84.80;;;;;;4917389;29;20045;-81
2022/07/27 11:25:00;;;;;;;4.35;0.73;;;24.40;84.50;;;;;;4916622;29;20181;-78
2022/07/27 11:27:48;;;;;;;5.55;1.00;;;24.20;84.60;;;;;;4914967;29;20083;-81
2022/07/27 11:30:34;;;;;;;4.10;0.70;;;24.00;85.10;;;;;;4914163;29;20056;-82
2022/07/27 11:33:21;;;;;;;5.53;0.80;;;24.60;86.80;;;;;;4916333;29;20059;-80
2022/07/27 11:36:08;;;;;;;3.88;0.80;;;24.50;84.70;;;;;;4916122;29;20437;-79
2022/07/27 11:38:54;;;;;;;5.40;0.75;;;24.10;83.20;;;;;;4913918;29;20123;-80
2022/07/27 11:41:42;;;;;;;4.93;0.90;;;24.40;82.90;;;;;;4914990;29;20056;-79
2022/07/27 11:44:29;;;;;;;4.60;0.90;;;25.10;82.50;;;;;;4915221;29;20071;-79
2022/07/27 11:47:17;;;;;;;6.68;0.60;;;25.40;80.60;;;;;;4914650;29;20066;-79
2022/07/27 11:50:06;;;;;;;5.45;0.70;;;25.70;79.70;;;;;;4916375;29;20509;-78
2022/07/27 11:52:56;;;;;;;4.07;0.90;;;25.80;78.00;;;;;;4915684;29;20064;-79
2022/07/27 11:55:48;;;;;;;5.18;0.65;;;25.60;78.30;;;;;;4914073;29;20485;-77
2022/07/27 11:59:05;;;;;;;3.42;0.73;;;25.20;78.30;;;;;;4913817;29;20107;-78
2022/07/27 12:01:59;;;;;;;9.13;1.08;;;25.00;79.30;;;;;;4918801;29;20052;-77
2022/07/27 12:04:47;;;;;;;5.93;1.20;;;25.10;79.70;;;;;;4917583;29;20149;-80
2022/07/27 12:07:35;;;;;;;3.33;0.80;;;24.90;80.80;;;;;;4918107;29;20586;-76
2022/07/27 12:10:22;;;;;;;7.65;0.88;;;24.80;82.40;;;;;;4917787;29;20119;-79
2022/07/27 12:13:18;;;;;;;3.65;0.65;;;25.20;81.80;;;;;;4918861;28;20056;-80
2022/07/27 12:16:04;;;;;;;6.43;1.25;;;25.50;80.70;;;;;;4918285;29;20063;-79
2022/07/27 12:18:50;;;;;;;6.00;0.90;;;25.50;78.80;;;;;;4918855;29;20111;-80
2022/07/27 12:21:49;;;;;;;4.55;0.80;;;25.40;79.10;;;;;;4917965;29;20044;-80
2022/07/27 12:24:41;;;;;;;6.22;1.23;;;25.10;79.30;;;;;;4918758;29;20096;-80
2022/07/27 12:27:31;;;;;;;4.38;0.95;;;25.20;78.90;;;;;;4919809;29;20396;-76
2022/07/27 12:30:26;;;;;;;6.30;0.93;;;25.10;78.40;;;;;;4889360;29;20058;-80
2022/07/27 12:33:28;;;;;;;4.30;0.90;;;24.90;79.40;;;;;;4918028;29;20425;-79
2022/07/27 12:36:30;;;;;;;4.35;0.98;;;25.10;77.20;;;;;;4920526;29;20088;-77
2022/07/27 12:39:30;;;;;;;6.93;1.30;;;24.80;77.90;;;;;;4922653;29;20052;-79
2022/07/27 12:42:16;;;;;;;6.50;1.10;;;24.60;79.40;;;;;;4921016;29;20083;-82
2022/07/27 12:45:13;;;;;;;6.35;0.95;;;24.50;80.10;;;;;;4921115;29;20117;-77
2022/07/27 12:48:16;;;;;;;7.82;1.63;;;24.60;79.40;;;;;;4919727;29;20063;-81
2022/07/27 12:51:07;;;;;;;4.68;0.90;;;24.70;78.90;;;;;;4919976;29;20112;-77
2022/07/27 12:53:53;;;;;;;4.65;0.60;;;25.00;80.50;;;;;;4908937;29;20048;-76
2022/07/27 12:56:39;;;;;;;3.90;0.90;;;25.30;78.70;;;;;;4907372;29;20441;-79
2022/07/27 12:59:26;;;;;;;5.95;1.20;;;25.40;77.10;;;;;;4921132;29;20056;-77
2022/07/27 13:02:12;;;;;;;4.72;0.80;;;25.50;77.00;;;;;;4918297;29;20040;-79
2022/07/27 13:04:58;;;;;;;7.85;1.10;;;25.60;77.20;;;;;;4918821;29;20409;-80
2022/07/27 13:07:46;;;;;;;4.82;0.90;;;25.60;76.80;;;;;;4918833;28;20056;-80
2022/07/27 13:10:32;;;;;;;3.83;0.80;;;26.00;75.60;;;;;;4918350;29;20091;-80
2022/07/27 13:13:23;;;;;;;8.50;1.15;;;26.50;75.20;;;;;;4917305;29;20060;-77
2022/07/27 13:16:09;;;;;;;4.30;0.88;;;27.20;74.80;;;;;;4917794;28;20060;-80
2022/07/27 13:18:56;;;;;;;5.05;0.60;;;27.60;73.70;;;;;;4916513;29;20052;-79
2022/07/27 13:21:42;;;;;;;5.75;0.70;;;28.30;70.90;;;;;;4919984;29;20052;-79
2022/07/27 13:24:28;;;;;;;4.15;1.02;;;28.70;69.20;;;;;;4918294;29;20052;-78
2022/07/27 13:27:15;;;;;;;5.55;0.82;;;28.30;67.40;;;;;;4921603;29;20059;-78
2022/07/27 13:30:04;;;;;;;3.38;0.70;;;28.00;66.80;;;;;;4919700;29;20056;-77
2022/07/27 13:32:50;;;;;;;4.10;0.80;;;28.10;67.70;;;;;;4921958;29;20071;-80
2022/07/27 13:35:38;;;;;;;4.38;0.95;;;28.20;66.80;;;;;;4918373;29;20148;-78
2022/07/27 13:38:24;;;;;;;7.70;0.93;;;27.90;66.20;;;;;;4905587;29;20083;-79
2022/07/27 13:41:11;;;;;;;7.03;0.90;;;27.70;67.00;;;;;;4919330;29;20084;-79
2022/07/27 13:43:57;;;;;;;3.97;0.82;;;27.80;65.40;;;;;;4922260;29;20146;-79
2022/07/27 13:46:44;;;;;;;8.32;1.08;;;28.00;65.10;;;;;;4912498;29;20052;-77
2022/07/27 13:50:02;;;;;;;6.13;0.90;;;28.40;64.50;;;;;;4896811;29;20088;-78
2022/07/27 13:56:34;;;;;;;2.65;0.60;;;28.80;61.80;;;;;;4898191;29;20044;-80
2022/07/27 13:59:20;;;;;;;3.83;0.70;;;29.10;61.80;;;;;;4898022;29;20048;-77
2022/07/27 14:02:07;;;;;;;3.15;0.73;;;29.40;61.60;;;;;;4897520;29;20044;-78
2022/07/27 14:05:02;;;;;;;4.82;0.73;;;29.00;61.00;;;;;;4869811;29;20048;-80
2022/07/27 14:07:49;;;;;;;7.72;1.00;;;29.00;60.90;;;;;;4897740;29;20140;-79
2022/07/27 14:10:38;;;;;;;4.35;1.05;;;29.50;60.20;;;;;;4897573;29;20061;-77
2022/07/27 14:13:25;;;;;;;5.70;1.60;;;30.20;60.00;;;;;;4896529;29;20585;-80
2022/07/27 14:16:11;;;;;;;3.75;0.70;;;31.10;59.80;;;;;;4898134;29;20056;-78
2022/07/27 14:18:58;;;;;;;4.93;0.90;;;30.10;58.50;;;;;;4885457;29;20049;-76
2022/07/27 14:21:45;;;;;;;6.43;1.05;;;30.40;57.60;;;;;;4897760;29;20064;-79
2022/07/27 14:24:31;;;;;;;3.90;0.82;;;31.10;56.30;;;;;;4897296;29;20527;-78
2022/07/27 14:27:17;;;;;;;4.03;0.50;;;31.30;55.40;;;;;;4897063;29;20556;-78
2022/07/27 14:30:05;;;;;;;3.50;0.50;;;31.40;53.60;;;;;;4897171;29;20148;-79
2022/07/27 14:32:51;;;;;;;3.50;0.63;;;31.30;52.30;;;;;;4896970;29;20143;-78
2022/07/27 14:35:38;;;;;;;5.15;0.73;;;31.20;52.60;;;;;;4896227;29;20174;-80
2022/07/27 14:38:24;;;;;;;4.63;0.57;;;31.30;52.50;;;;;;4896374;29;20052;-78
2022/07/27 14:41:12;;;;;;;4.43;0.70;;;31.40;52.80;;;;;;4896238;29;20060;-80